Latest Weather Observations for Wattamolla

IDN60801

Issued at 3:03 pm EST Sunday 31 July 2016 (issued every 30 minutes, with the page automatically refreshed every 10 minutes)

About weather observations | Map of weather stations | Latest weather observations for NSW | Other Formats
Station Details ID: 066208 Name: WATTAMOLLA AWS Lat: -34.14 Lon: 151.12 Height: 44.0 m
Data from the previous 72 hours. | See also: Recent months for locations in New South Wales
Date/Time
EST
Temp
°C
App
Temp
°C
Dew
Point
°C
Rel
Hum
%
Delta-T
°C
Wind Press
QNH
hPa
Press
MSL
hPa
Rain since
9am
mm
Dir  Spd
km/h
Gust
km/h
Spd
kts
Gust
kts
31/03:00pm - - - - - ENE 6 11 3 6 - - -
31/02:30pm - - - - - NNE 9 13 5 7 - - -
31/02:00pm - - - - - NNE 11 15 6 8 - - -
31/01:30pm - - - - - NNW 7 13 4 7 - - -
31/01:00pm - - - - - NNW 7 11 4 6 - - -
31/12:30pm - - - - - NNW 6 9 3 5 - - -
31/12:00pm - - - - - SW 9 15 5 8 - - -
31/11:30am - - - - - NW 2 7 1 4 - - -
31/11:00am - - - - - NW 13 19 7 10 - - -
31/10:30am - - - - - W 9 15 5 8 - - -
31/10:00am - - - - - WNW 9 13 5 7 - - -
31/09:30am - - - - - NW 11 13 6 7 - - -
31/09:00am - - - - - WNW 11 17 6 9 - - -
31/08:30am - - - - - WNW 13 13 7 7 - - -
31/08:00am - - - - - W 13 15 7 8 - - -
31/07:30am - - - - - W 15 17 8 9 - - -
31/07:00am - - - - - WNW 13 19 7 10 - - -
31/06:30am - - - - - NNW 11 13 6 7 - - -
31/06:00am - - - - - NW 13 15 7 8 - - -
31/05:30am - - - - - NNW 15 24 8 13 - - -
31/05:00am - - - - - NNW 13 17 7 9 - - -
31/04:30am - - - - - NNW 17 20 9 11 - - -
31/04:00am - - - - - NNW 15 22 8 12 - - -
31/03:30am - - - - - NW 17 24 9 13 - - -
31/03:00am - - - - - NW 22 30 12 16 - - -
31/02:30am - - - - - NW 13 17 7 9 - - -
31/02:00am - - - - - NNW 15 19 8 10 - - -
31/01:30am - - - - - NNW 13 17 7 9 - - -
31/01:00am - - - - - NNW 13 17 7 9 - - -
31/12:30am - - - - - NNW 11 15 6 8 - - -
31/12:00am - - - - - NNW 9 13 5 7 - - -
 
Date/Time
EST
Temp
°C
App
Temp
°C
Dew
Point
°C
Rel
Hum
%
Delta-T
°C
Wind Press
QNH
hPa
Press
MSL
hPa
Rain since
9am
mm
Dir  Spd
km/h
Gust
km/h
Spd
kts
Gust
kts
30/11:30pm - - - - - NW 15 19 8 10 - - -
30/11:00pm - - - - - NNW 13 15 7 8 - - -
30/10:30pm - - - - - NW 13 19 7 10 - - -
30/10:00pm - - - - - NNW 19 22 10 12 - - -
30/09:30pm - - - - - NNW 17 19 9 10 - - -
30/09:00pm - - - - - NNW 17 19 9 10 - - -
30/08:30pm - - - - - NNW 17 20 9 11 - - -
30/08:00pm - - - - - NNW 17 19 9 10 - - -
30/07:30pm - - - - - NNW 15 17 8 9 - - -
30/07:00pm - - - - - NNW 15 17 8 9 - - -
30/06:30pm - - - - - NW 15 17 8 9 - - -
30/06:00pm - - - - - NW 11 13 6 7 - - -
30/05:30pm - - - - - NNW 2 7 1 4 - - -
30/05:00pm - - - - - CALM 0 4 0 2 - - -
30/04:30pm - - - - - SSW 6 7 3 4 - - -
30/03:30pm - - - - - SE 9 11 5 6 - - -
30/03:00pm - - - - - S 13 15 7 8 - - -
30/02:30pm - - - - - - - - - - - - -
30/02:00pm - - - - - SSE 20 30 11 16 - - -
30/01:30pm - - - - - S 22 28 12 15 - - -
30/01:00pm - - - - - S 26 30 14 16 - - -
30/12:30pm - - - - - S 22 28 12 15 - - -
30/12:00pm - - - - - S 19 26 10 14 - - -
30/11:30am - - - - - S 22 28 12 15 - - -
30/11:00am - - - - - S 20 30 11 16 - - -
30/10:30am - - - - - S 20 26 11 14 - - -
30/10:00am - - - - - S 15 24 8 13 - - -
30/09:30am - - - - - S 15 24 8 13 - - -
30/09:00am - - - - - SSW 11 15 6 8 - - -
30/08:30am - - - - - WSW 11 15 6 8 - - -
30/08:00am - - - - - WSW 13 15 7 8 - - -
30/07:30am - - - - - SW 13 15 7 8 - - -
30/07:00am - - - - - SSW 15 22 8 12 - - -
30/06:30am - - - - - S 26 32 14 17 - - -
30/06:00am - - - - - SSW 17 26 9 14 - - -
30/05:30am - - - - - WSW 13 15 7 8 - - -
30/05:00am - - - - - W 13 15 7 8 - - -
30/04:30am - - - - - WNW 13 15 7 8 - - -
30/04:00am - - - - - W 15 17 8 9 - - -
30/03:30am - - - - - W 15 17 8 9 - - -
30/03:00am - - - - - WNW 17 19 9 10 - - -
30/02:30am - - - - - W 17 20 9 11 - - -
30/02:00am - - - - - W 19 22 10 12 - - -
30/01:30am - - - - - W 19 24 10 13 - - -
30/01:00am - - - - - W 19 22 10 12 - - -
30/12:30am - - - - - W 17 22 9 12 - - -
30/12:00am - - - - - WNW 17 20 9 11 - - -
 
Date/Time
EST
Temp
°C
App
Temp
°C
Dew
Point
°C
Rel
Hum
%
Delta-T
°C
Wind Press
QNH
hPa
Press
MSL
hPa
Rain since
9am
mm
Dir  Spd
km/h
Gust
km/h
Spd
kts
Gust
kts
29/11:30pm - - - - - WNW 17 22 9 12 - - -
29/11:00pm - - - - - WNW 17 22 9 12 - - -
29/10:30pm - - - - - WNW 17 24 9 13 - - -
29/10:00pm - - - - - W 22 30 12 16 - - -
29/09:30pm - - - - - W 28 37 15 20 - - -
29/09:00pm - - - - - W 24 33 13 18 - - -
29/08:30pm - - - - - W 28 37 15 20 - - -
29/08:00pm - - - - - W 22 35 12 19 - - -
29/07:30pm - - - - - WNW 22 32 12 17 - - -
29/07:00pm - - - - - W 28 39 15 21 - - -
29/06:30pm - - - - - W 26 39 14 21 - - -
29/06:00pm - - - - - W 24 39 13 21 - - -
29/05:30pm - - - - - W 20 28 11 15 - - -
29/05:00pm - - - - - WNW 28 39 15 21 - - -
29/04:30pm - - - - - W 24 39 13 21 - - -
29/04:00pm - - - - - WNW 22 33 12 18 - - -
29/03:30pm - - - - - W 20 35 11 19 - - -
29/03:00pm - - - - - W 20 33 11 18 - - -
29/02:30pm - - - - - W 17 28 9 15 - - -
29/02:00pm - - - - - NW 17 26 9 14 - - -
29/01:30pm - - - - - NW 19 30 10 16 - - -
29/01:00pm - - - - - NNW 17 28 9 15 - - -
29/12:30pm - - - - - NNW 19 28 10 15 - - -
29/12:00pm - - - - - WNW 17 26 9 14 - - -
29/11:30am - - - - - NW 17 26 9 14 - - -
29/11:00am - - - - - WNW 17 28 9 15 - - -
29/10:30am - - - - - WNW 19 28 10 15 - - -
29/10:00am - - - - - WNW 20 30 11 16 - - -
29/09:30am - - - - - WNW 17 28 9 15 - - -
29/09:00am - - - - - W 13 19 7 10 - - -
29/08:30am - - - - - W 13 19 7 10 - - -
29/08:00am - - - - - NW 13 17 7 9 - - -
29/07:30am - - - - - WNW 17 20 9 11 - - -
29/07:00am - - - - - WNW 19 26 10 14 - - -
29/06:30am - - - - - WNW 17 22 9 12 - - -
29/06:00am - - - - - WNW 19 24 10 13 - - -
29/05:30am - - - - - WNW 20 28 11 15 - - -
29/05:00am - - - - - WNW 26 33 14 18 - - -
29/04:30am - - - - - WNW 24 30 13 16 - - -
29/04:00am - - - - - WNW 19 24 10 13 - - -
29/03:30am - - - - - WNW 19 24 10 13 - - -
29/03:00am - - - - - WNW 20 24 11 13 - - -
29/02:30am - - - - - NNW 17 19 9 10 - - -
29/02:00am - - - - - WNW 19 26 10 14 - - -
29/01:30am - - - - - WNW 20 28 11 15 - - -
29/01:00am - - - - - W 24 33 13 18 - - -
29/12:30am - - - - - W 26 33 14 18 - - -
29/12:00am - - - - - WNW 22 30 12 16 - - -
 
Date/Time
EST
Temp
°C
App
Temp
°C
Dew
Point
°C
Rel
Hum
%
Delta-T
°C
Wind Press
QNH
hPa
Press
MSL
hPa
Rain since
9am
mm
Dir  Spd
km/h
Gust
km/h
Spd
kts
Gust
kts
28/11:30pm - - - - - WNW 22 32 12 17 - - -
28/11:00pm - - - - - WNW 24 35 13 19 - - -
28/10:30pm - - - - - WNW 20 33 11 18 - - -
28/10:00pm - - - - - W 24 33 13 18 - - -
28/09:30pm - - - - - WNW 26 37 14 20 - - -
28/09:00pm - - - - - WNW 24 35 13 19 - - -
28/08:30pm - - - - - W 28 46 15 25 - - -
28/08:03pm - - - - - W 28 46 15 25 - - -
28/08:00pm - - - - - W 30 44 16 24 - - -
28/07:30pm - - - - - WNW 28 39 15 21 - - -
28/07:00pm - - - - - WNW 20 30 11 16 - - -
28/06:30pm - - - - - WNW 19 28 10 15 - - -
28/06:00pm - - - - - WSW 19 28 10 15 - - -
28/05:30pm - - - - - WSW 22 32 12 17 - - -
28/05:00pm - - - - - W 19 28 10 15 - - -
28/04:30pm - - - - - W 17 26 9 14 - - -
28/04:00pm - - - - - WSW 20 30 11 16 - - -

Other Formats:

Comma delimited format used in spreadsheet applications
http://www.bom.gov.au/fwo/IDN60801/IDN60801.95752.axf

JavaScript Object Notation format (JSON) in row-major order
http://www.bom.gov.au/fwo/IDN60801/IDN60801.95752.json